Yeovil, United Kingdom
Current Conditions -  °F | °C
As of 12:50 AM on Monday 24 Nov 2014 (Local Time) from EGDY Reporting Station
Moderate Fog Moderate Fog  
Wind Chill: 32°   Ceiling: 100
Heat Index: 32°   Visibility: 0.15mi
Dew Point: 30°   Wind: 1mph
Humidity: 93%   Direction: 60°ENE
Pressure: 30.24"   Gusts: NA
Location:  50.94°N, 2.63°W
Report Text: EGDY 240050Z AUTO 06001KT 0250 FG BKN001/// M00/M01 Q1024
Loading
Personal Weather Stations






























Interactive Weather Map New forecast layout! Learn more

10-Day Weather Forecast

Advertisements
Track Severe Weather on mobile